TUI1234 LFPO-EGGP
Flight info
| Callsign | TUI1234 |
|---|---|
| Flight time | N/A |
| Altitude | 18000 |
| Route | OPALE J20 ABB T22 RATUK/N0453F360 UL613 SOVAT L613 SANDY UN57 WELIN T420 ELVOS |
| Aircraft | B738/M-SDE2E3FGHIRWXY/LB1 |
Departure
| Time | 2026-05-07 17:48 |
|---|---|
| Airport | Paris-Orly Airport (LFPO) |
Arrival
| Time | N/A |
|---|---|
| Airport | Liverpool John Lennon Airport (EGGP) |
| Time | Latitude | Longitude | Altitude | Speed | Heading |
|---|---|---|---|---|---|
| 2026-05-07 17:26 | 48.72872 | 2.37558 | 285 ft | 0 kts | 312° |
| 2026-05-07 17:37 | 48.72861 | 2.37576 | 293 ft | 4 kts | 312° |
| 2026-05-07 17:37 | 48.72844 | 2.37606 | 293 ft | 4 kts | 311° |
| 2026-05-07 17:37 | 48.72826 | 2.37637 | 290 ft | 4 kts | 309° |
| 2026-05-07 17:38 | 48.72811 | 2.37668 | 291 ft | 4 kts | 301° |
| 2026-05-07 17:38 | 48.72800 | 2.37704 | 292 ft | 4 kts | 276° |
| 2026-05-07 17:38 | 48.72800 | 2.37724 | 292 ft | 1 kts | 255° |
| 2026-05-07 17:40 | 48.72800 | 2.37723 | 292 ft | 1 kts | 255° |
| 2026-05-07 17:40 | 48.72782 | 2.37630 | 292 ft | 15 kts | 253° |
| 2026-05-07 17:41 | 48.72751 | 2.37467 | 289 ft | 17 kts | 254° |
| 2026-05-07 17:41 | 48.72719 | 2.37292 | 293 ft | 19 kts | 255° |
| 2026-05-07 17:41 | 48.72684 | 2.37091 | 289 ft | 20 kts | 256° |
| 2026-05-07 17:41 | 48.72648 | 2.36896 | 290 ft | 19 kts | 252° |
| 2026-05-07 17:42 | 48.72600 | 2.36704 | 293 ft | 23 kts | 249° |
| 2026-05-07 17:42 | 48.72543 | 2.36433 | 292 ft | 26 kts | 255° |
| 2026-05-07 17:42 | 48.72503 | 2.36257 | 289 ft | 16 kts | 222° |
| 2026-05-07 17:42 | 48.72406 | 2.36188 | 291 ft | 16 kts | 231° |
| 2026-05-07 17:43 | 48.72377 | 2.36028 | 289 ft | 20 kts | 258° |
| 2026-05-07 17:43 | 48.72342 | 2.35785 | 294 ft | 20 kts | 256° |
| 2026-05-07 17:43 | 48.72293 | 2.35621 | 289 ft | 15 kts | 217° |
| 2026-05-07 17:43 | 48.72216 | 2.35607 | 289 ft | 0 kts | 169° |
| 2026-05-07 17:44 | 48.72201 | 2.35612 | 292 ft | 10 kts | 168° |
| 2026-05-07 17:44 | 48.72114 | 2.35649 | 289 ft | 14 kts | 159° |
| 2026-05-07 17:44 | 48.72060 | 2.35697 | 291 ft | 5 kts | 138° |
| 2026-05-07 17:45 | 48.72037 | 2.35738 | 289 ft | 5 kts | 128° |
| 2026-05-07 17:45 | 48.72030 | 2.35754 | 289 ft | 0 kts | 122° |
| 2026-05-07 17:47 | 48.72002 | 2.35819 | 290 ft | 22 kts | 123° |
| 2026-05-07 17:47 | 48.71956 | 2.35924 | 293 ft | 10 kts | 84° |
| 2026-05-07 17:48 | 48.71977 | 2.36048 | 291 ft | 26 kts | 74° |
| 2026-05-07 17:48 | 48.72125 | 2.36843 | 291 ft | 128 kts | 74° |
| 2026-05-07 17:48 | 48.72442 | 2.38551 | 473 ft | 198 kts | 74° |
| 2026-05-07 17:48 | 48.72834 | 2.40682 | 1288 ft | 224 kts | 74° |
| 2026-05-07 17:49 | 48.73288 | 2.43155 | 1833 ft | 265 kts | 74° |
| 2026-05-07 17:49 | 48.73822 | 2.46024 | 2350 ft | 298 kts | 73° |
| 2026-05-07 17:49 | 48.74270 | 2.49208 | 2802 ft | 325 kts | 84° |
| 2026-05-07 17:49 | 48.74369 | 2.52724 | 3313 ft | 344 kts | 89° |
| 2026-05-07 17:50 | 48.74368 | 2.56325 | 4174 ft | 320 kts | 94° |
| 2026-05-07 17:50 | 48.73753 | 2.59305 | 4997 ft | 276 kts | 121° |
| 2026-05-07 17:50 | 48.72605 | 2.61511 | 5659 ft | 264 kts | 137° |
| 2026-05-07 17:50 | 48.71142 | 2.63252 | 6212 ft | 272 kts | 150° |
| 2026-05-07 17:51 | 48.69421 | 2.64404 | 6669 ft | 270 kts | 165° |
| 2026-05-07 17:51 | 48.67562 | 2.64806 | 7106 ft | 272 kts | 181° |
| 2026-05-07 17:51 | 48.65700 | 2.64364 | 7533 ft | 272 kts | 199° |
| 2026-05-07 17:51 | 48.64030 | 2.63102 | 7992 ft | 272 kts | 216° |
| 2026-05-07 17:52 | 48.62657 | 2.61092 | 8465 ft | 274 kts | 233° |
| 2026-05-07 17:52 | 48.61749 | 2.58574 | 8942 ft | 272 kts | 251° |
| 2026-05-07 17:52 | 48.61378 | 2.55808 | 9414 ft | 273 kts | 267° |
| 2026-05-07 17:52 | 48.61481 | 2.52932 | 9907 ft | 276 kts | 278° |
| 2026-05-07 17:53 | 48.62049 | 2.50113 | 10316 ft | 296 kts | 295° |
| 2026-05-07 17:53 | 48.63222 | 2.47360 | 10539 ft | 326 kts | 304° |
| 2026-05-07 17:53 | 48.64566 | 2.44493 | 11150 ft | 338 kts | 303° |
| 2026-05-07 17:53 | 48.65578 | 2.41297 | 11916 ft | 340 kts | 281° |
| 2026-05-07 17:54 | 48.65671 | 2.37755 | 12805 ft | 339 kts | 262° |
| 2026-05-07 17:54 | 48.65038 | 2.34301 | 13634 ft | 341 kts | 253° |
| 2026-05-07 17:54 | 48.64755 | 2.30724 | 14253 ft | 349 kts | 275° |
| 2026-05-07 17:54 | 48.65356 | 2.27161 | 15004 ft | 353 kts | 291° |
| 2026-05-07 17:55 | 48.66471 | 2.23833 | 15755 ft | 356 kts | 297° |
| 2026-05-07 17:55 | 48.67671 | 2.20634 | 16392 ft | 361 kts | 298° |
| 2026-05-07 17:55 | 48.68884 | 2.17453 | 17025 ft | 365 kts | 298° |
| 2026-05-07 17:55 | 48.70148 | 2.14105 | 17705 ft | 368 kts | 297° |
| 2026-05-07 17:56 | 48.71412 | 2.10707 | 18369 ft | 372 kts | 297° |
| 2026-05-07 17:56 | 48.72675 | 2.07271 | 18951 ft | 375 kts | 297° |
| 2026-05-07 17:56 | 48.73937 | 2.03812 | 19548 ft | 377 kts | 297° |
| 2026-05-07 17:56 | 48.75210 | 2.00307 | 20138 ft | 380 kts | 297° |
| 2026-05-07 17:57 | 48.76486 | 1.96784 | 20698 ft | 383 kts | 297° |
| 2026-05-07 17:57 | 48.77338 | 1.94430 | 21068 ft | 385 kts | 297° |
| 2026-05-07 17:57 | 48.79012 | 1.89800 | 21782 ft | 389 kts | 297° |
| 2026-05-07 17:57 | 48.80412 | 1.86202 | 22305 ft | 395 kts | 305° |
| 2026-05-07 17:58 | 48.82420 | 1.83406 | 22798 ft | 405 kts | 326° |
| 2026-05-07 17:58 | 48.85020 | 1.81705 | 23417 ft | 412 kts | 344° |
| 2026-05-07 17:58 | 48.87895 | 1.81303 | 23889 ft | 421 kts | 1° |
| 2026-05-07 17:58 | 48.90779 | 1.82315 | 24285 ft | 429 kts | 19° |
| 2026-05-07 17:59 | 48.93550 | 1.83998 | 24737 ft | 431 kts | 21° |
| 2026-05-07 17:59 | 48.96324 | 1.85776 | 25117 ft | 434 kts | 21° |
| 2026-05-07 17:59 | 48.99114 | 1.87574 | 25489 ft | 438 kts | 21° |
| 2026-05-07 17:59 | 49.01937 | 1.89371 | 25886 ft | 440 kts | 21° |
| 2026-05-07 18:00 | 49.04768 | 1.91147 | 26285 ft | 442 kts | 20° |
| 2026-05-07 18:00 | 49.07635 | 1.92927 | 26672 ft | 445 kts | 20° |
| 2026-05-07 18:00 | 49.10505 | 1.94700 | 27048 ft | 447 kts | 20° |
| 2026-05-07 18:00 | 49.13370 | 1.96470 | 27421 ft | 450 kts | 20° |
| 2026-05-07 18:01 | 49.16285 | 1.98272 | 27796 ft | 452 kts | 20° |
| 2026-05-07 18:01 | 49.19204 | 2.00081 | 28166 ft | 454 kts | 20° |
| 2026-05-07 18:01 | 49.22081 | 2.01868 | 28587 ft | 454 kts | 20° |
| 2026-05-07 18:01 | 49.25005 | 2.03687 | 29053 ft | 454 kts | 20° |
| 2026-05-07 18:02 | 49.33826 | 2.09182 | 29041 ft | 451 kts | 20° |
| 2026-05-07 18:03 | 49.39642 | 2.12815 | 29050 ft | 452 kts | 20° |
| 2026-05-07 18:03 | 49.42650 | 2.14128 | 29005 ft | 450 kts | 3° |
| 2026-05-07 18:03 | 49.45720 | 2.13982 | 29046 ft | 445 kts | 348° |
| 2026-05-07 18:04 | 49.51574 | 2.10984 | 29060 ft | 442 kts | 336° |
| 2026-05-07 18:04 | 49.57274 | 2.07564 | 29052 ft | 443 kts | 336° |
| 2026-05-07 18:05 | 49.63036 | 2.04170 | 29044 ft | 442 kts | 337° |
| 2026-05-07 18:05 | 49.68803 | 2.00827 | 29039 ft | 441 kts | 337° |
| 2026-05-07 18:06 | 49.74527 | 1.97513 | 29047 ft | 439 kts | 337° |
| 2026-05-07 18:06 | 49.80250 | 1.94188 | 29037 ft | 438 kts | 337° |
| 2026-05-07 18:07 | 49.85890 | 1.90902 | 29040 ft | 438 kts | 337° |
| 2026-05-07 18:07 | 49.91686 | 1.88026 | 29008 ft | 442 kts | 351° |
| 2026-05-07 18:08 | 49.97836 | 1.87368 | 29062 ft | 443 kts | 354° |
| 2026-05-07 18:08 | 50.03998 | 1.86718 | 29051 ft | 444 kts | 353° |
| 2026-05-07 18:09 | 50.10162 | 1.85935 | 29041 ft | 444 kts | 353° |
| 2026-05-07 18:09 | 50.16219 | 1.84607 | 29053 ft | 441 kts | 343° |
| 2026-05-07 18:10 | 50.22171 | 1.82054 | 29049 ft | 441 kts | 342° |
| 2026-05-07 18:10 | 50.28071 | 1.79472 | 29044 ft | 441 kts | 342° |
| 2026-05-07 18:11 | 50.33981 | 1.76964 | 29043 ft | 440 kts | 342° |
| 2026-05-07 18:11 | 50.39904 | 1.74482 | 29046 ft | 440 kts | 342° |
| 2026-05-07 18:12 | 50.45824 | 1.71999 | 29049 ft | 440 kts | 342° |
| 2026-05-07 18:12 | 50.51697 | 1.69526 | 29054 ft | 439 kts | 342° |
| 2026-05-07 18:13 | 50.57644 | 1.67014 | 29047 ft | 439 kts | 342° |
| 2026-05-07 18:13 | 50.63501 | 1.64405 | 29025 ft | 437 kts | 336° |
| 2026-05-07 18:14 | 50.68676 | 1.59698 | 29035 ft | 429 kts | 317° |
| 2026-05-07 18:14 | 50.73095 | 1.53432 | 29051 ft | 428 kts | 315° |
| 2026-05-07 18:15 | 50.77542 | 1.47186 | 29050 ft | 428 kts | 316° |
| 2026-05-07 18:15 | 50.82016 | 1.40977 | 29053 ft | 428 kts | 316° |
| 2026-05-07 18:16 | 50.86487 | 1.34752 | 29058 ft | 428 kts | 316° |
| 2026-05-07 18:16 | 50.90957 | 1.28509 | 29063 ft | 428 kts | 316° |
| 2026-05-07 18:17 | 50.95424 | 1.22251 | 29073 ft | 428 kts | 316° |
| 2026-05-07 18:17 | 50.99881 | 1.15991 | 29070 ft | 427 kts | 316° |
| 2026-05-07 18:18 | 51.04324 | 1.09735 | 29071 ft | 427 kts | 315° |
| 2026-05-07 18:18 | 51.08722 | 1.03396 | 29072 ft | 426 kts | 313° |
| 2026-05-07 18:19 | 51.12956 | 0.96795 | 29072 ft | 426 kts | 313° |
| 2026-05-07 18:19 | 51.17108 | 0.90252 | 29007 ft | 427 kts | 313° |
| 2026-05-07 18:20 | 51.21338 | 0.83626 | 28981 ft | 428 kts | 313° |
| 2026-05-07 18:20 | 51.25600 | 0.76965 | 28952 ft | 429 kts | 313° |
| 2026-05-07 18:21 | 51.29858 | 0.70300 | 28933 ft | 429 kts | 313° |
| 2026-05-07 18:21 | 51.34129 | 0.63595 | 29084 ft | 429 kts | 313° |
| 2026-05-07 18:22 | 51.38372 | 0.56916 | 29071 ft | 427 kts | 313° |
| 2026-05-07 18:22 | 51.42599 | 0.50242 | 29069 ft | 426 kts | 313° |
| 2026-05-07 18:23 | 51.46808 | 0.43578 | 29074 ft | 425 kts | 313° |
| 2026-05-07 18:23 | 51.51013 | 0.36901 | 29069 ft | 425 kts | 312° |
| 2026-05-07 18:24 | 51.55213 | 0.30214 | 29079 ft | 426 kts | 312° |
| 2026-05-07 18:24 | 51.59419 | 0.23500 | 29085 ft | 426 kts | 312° |
| 2026-05-07 18:25 | 51.63619 | 0.16778 | 29064 ft | 426 kts | 312° |
| 2026-05-07 18:25 | 51.67798 | 0.10007 | 29075 ft | 426 kts | 311° |
| 2026-05-07 18:26 | 51.71938 | 0.03190 | 29070 ft | 425 kts | 311° |
| 2026-05-07 18:26 | 51.76067 | -0.03628 | 29056 ft | 426 kts | 311° |
| 2026-05-07 18:27 | 51.80215 | -0.10485 | 29068 ft | 426 kts | 311° |
| 2026-05-07 18:27 | 51.84358 | -0.17348 | 29040 ft | 427 kts | 311° |
| 2026-05-07 18:28 | 51.88474 | -0.24184 | 29051 ft | 426 kts | 311° |
| 2026-05-07 18:28 | 51.92595 | -0.31047 | 29048 ft | 426 kts | 311° |
| 2026-05-07 18:29 | 51.96331 | -0.37288 | 29049 ft | 426 kts | 311° |
| 2026-05-07 18:29 | 52.00442 | -0.44173 | 29048 ft | 426 kts | 311° |
| 2026-05-07 18:30 | 52.04555 | -0.51080 | 29051 ft | 425 kts | 311° |
| 2026-05-07 18:30 | 52.08667 | -0.58006 | 29040 ft | 426 kts | 311° |
| 2026-05-07 18:31 | 52.12781 | -0.64954 | 29038 ft | 426 kts | 311° |
| 2026-05-07 18:31 | 52.16207 | -0.70756 | 29033 ft | 427 kts | 311° |
| 2026-05-07 18:32 | 52.20326 | -0.77747 | 29034 ft | 427 kts | 311° |
| 2026-05-07 18:32 | 52.24487 | -0.84664 | 29009 ft | 429 kts | 316° |
| 2026-05-07 18:32 | 52.26878 | -0.87608 | 28646 ft | 435 kts | 325° |
| 2026-05-07 18:33 | 52.29462 | -0.90159 | 28163 ft | 432 kts | 327° |
| 2026-05-07 18:33 | 52.32005 | -0.92587 | 27655 ft | 416 kts | 327° |
| 2026-05-07 18:33 | 52.34481 | -0.94963 | 27191 ft | 410 kts | 327° |
| 2026-05-07 18:33 | 52.36941 | -0.97364 | 26715 ft | 411 kts | 326° |
| 2026-05-07 18:34 | 52.39391 | -0.99787 | 26264 ft | 412 kts | 326° |
| 2026-05-07 18:34 | 52.41846 | -1.02235 | 25809 ft | 413 kts | 326° |
| 2026-05-07 18:34 | 52.44299 | -1.04688 | 25352 ft | 413 kts | 326° |
| 2026-05-07 18:34 | 52.46750 | -1.07142 | 24964 ft | 414 kts | 326° |
| 2026-05-07 18:35 | 52.49174 | -1.09572 | 24936 ft | 413 kts | 326° |
| 2026-05-07 18:35 | 52.51655 | -1.12080 | 24902 ft | 415 kts | 326° |
| 2026-05-07 18:35 | 52.54089 | -1.14553 | 24915 ft | 417 kts | 326° |
| 2026-05-07 18:35 | 52.56591 | -1.17097 | 24896 ft | 418 kts | 326° |
| 2026-05-07 18:36 | 52.59037 | -1.19574 | 24909 ft | 417 kts | 326° |
| 2026-05-07 18:36 | 52.61506 | -1.22073 | 24849 ft | 418 kts | 326° |
| 2026-05-07 18:36 | 52.63991 | -1.24591 | 24331 ft | 421 kts | 326° |
| 2026-05-07 18:36 | 52.66517 | -1.27153 | 23928 ft | 417 kts | 326° |
| 2026-05-07 18:37 | 52.68954 | -1.29631 | 23489 ft | 419 kts | 326° |
| 2026-05-07 18:37 | 52.71433 | -1.32154 | 23110 ft | 418 kts | 326° |
| 2026-05-07 18:37 | 52.73905 | -1.34668 | 22818 ft | 417 kts | 326° |
| 2026-05-07 18:37 | 52.76376 | -1.37184 | 22496 ft | 418 kts | 326° |
| 2026-05-07 18:38 | 52.78871 | -1.39729 | 22177 ft | 424 kts | 326° |
| 2026-05-07 18:38 | 52.81396 | -1.42308 | 21863 ft | 428 kts | 326° |
| 2026-05-07 18:38 | 52.83933 | -1.44901 | 21542 ft | 427 kts | 326° |
| 2026-05-07 18:38 | 52.86460 | -1.47488 | 21252 ft | 427 kts | 326° |
| 2026-05-07 18:39 | 52.88981 | -1.50073 | 21000 ft | 426 kts | 326° |
| 2026-05-07 18:39 | 52.91500 | -1.52659 | 20750 ft | 426 kts | 326° |
| 2026-05-07 18:39 | 52.94015 | -1.55246 | 20488 ft | 425 kts | 326° |
| 2026-05-07 18:39 | 52.96530 | -1.57836 | 20244 ft | 425 kts | 326° |
| 2026-05-07 18:40 | 52.99059 | -1.60444 | 19774 ft | 430 kts | 326° |
| 2026-05-07 18:40 | 53.01616 | -1.63088 | 19289 ft | 435 kts | 326° |
| 2026-05-07 18:40 | 53.03962 | -1.66249 | 18672 ft | 436 kts | 308° |
| 2026-05-07 18:40 | 53.05464 | -1.70457 | 18307 ft | 410 kts | 291° |
| 2026-05-07 18:41 | 53.06259 | -1.74800 | 17711 ft | 387 kts | 278° |
| 2026-05-07 18:41 | 53.06672 | -1.79091 | 17150 ft | 369 kts | 276° |
| 2026-05-07 18:41 | 53.07041 | -1.83260 | 16473 ft | 359 kts | 276° |
| 2026-05-07 18:41 | 53.07398 | -1.87311 | 15826 ft | 350 kts | 276° |
| 2026-05-07 18:42 | 53.07752 | -1.91266 | 15267 ft | 340 kts | 276° |
| 2026-05-07 18:42 | 53.08098 | -1.95050 | 15120 ft | 321 kts | 276° |
| 2026-05-07 18:42 | 53.08434 | -1.98686 | 15035 ft | 315 kts | 276° |
| 2026-05-07 18:42 | 53.08764 | -2.02243 | 15030 ft | 308 kts | 276° |
| 2026-05-07 18:43 | 53.09088 | -2.05737 | 15024 ft | 304 kts | 276° |
| 2026-05-07 18:43 | 53.09409 | -2.09191 | 15036 ft | 303 kts | 276° |
| 2026-05-07 18:43 | 53.09730 | -2.12669 | 14776 ft | 306 kts | 276° |
| 2026-05-07 18:43 | 53.10058 | -2.16216 | 14128 ft | 311 kts | 276° |
| 2026-05-07 18:44 | 53.10384 | -2.19745 | 13577 ft | 307 kts | 276° |
| 2026-05-07 18:44 | 53.10706 | -2.23231 | 12961 ft | 304 kts | 276° |
| 2026-05-07 18:44 | 53.11026 | -2.26707 | 12284 ft | 303 kts | 276° |
| 2026-05-07 18:44 | 53.11346 | -2.30209 | 11330 ft | 310 kts | 276° |
| 2026-05-07 18:45 | 53.11671 | -2.33774 | 10566 ft | 311 kts | 276° |
| 2026-05-07 18:45 | 53.11986 | -2.37218 | 10471 ft | 289 kts | 276° |
| 2026-05-07 18:45 | 53.12283 | -2.40472 | 9953 ft | 285 kts | 276° |
| 2026-05-07 18:45 | 53.12578 | -2.43744 | 9328 ft | 284 kts | 276° |
| 2026-05-07 18:46 | 53.12871 | -2.46989 | 8678 ft | 284 kts | 276° |
| 2026-05-07 18:46 | 53.13162 | -2.50230 | 8182 ft | 279 kts | 276° |
| 2026-05-07 18:46 | 53.13441 | -2.53328 | 8072 ft | 261 kts | 275° |
| 2026-05-07 18:46 | 53.13704 | -2.56258 | 7707 ft | 255 kts | 274° |
| 2026-05-07 18:47 | 53.13976 | -2.59190 | 7258 ft | 255 kts | 275° |
| 2026-05-07 18:47 | 53.14256 | -2.62095 | 6804 ft | 254 kts | 275° |
| 2026-05-07 18:47 | 53.14537 | -2.64995 | 6355 ft | 253 kts | 275° |
| 2026-05-07 18:47 | 53.14815 | -2.67871 | 6010 ft | 246 kts | 275° |
| 2026-05-07 18:48 | 53.15080 | -2.70603 | 6045 ft | 236 kts | 275° |
| 2026-05-07 18:48 | 53.15351 | -2.73282 | 5990 ft | 235 kts | 281° |
| 2026-05-07 18:48 | 53.16336 | -2.75450 | 6010 ft | 248 kts | 326° |
| 2026-05-07 18:48 | 53.18026 | -2.76203 | 5992 ft | 259 kts | 2° |
| 2026-05-07 18:49 | 53.19703 | -2.75199 | 6011 ft | 260 kts | 39° |
| 2026-05-07 18:49 | 53.20753 | -2.72815 | 6023 ft | 256 kts | 71° |
| 2026-05-07 18:49 | 53.21144 | -2.69951 | 5886 ft | 257 kts | 91° |
| 2026-05-07 18:49 | 53.21222 | -2.66935 | 5282 ft | 270 kts | 90° |
| 2026-05-07 18:50 | 53.21075 | -2.63878 | 4425 ft | 277 kts | 110° |
| 2026-05-07 18:50 | 53.20560 | -2.60750 | 3561 ft | 285 kts | 98° |
| 2026-05-07 18:50 | 53.20817 | -2.57326 | 1778 ft | 322 kts | 68° |
| 2026-05-07 18:50 | 53.22114 | -2.54210 | 1063 ft | 311 kts | 52° |
| 2026-05-07 18:51 | 53.23311 | -2.51772 | 2057 ft | 255 kts | 53° |
| 2026-05-07 18:51 | 53.24500 | -2.49731 | 2188 ft | 244 kts | 41° |